Time;durP1;ratioP1;P1;durP2;ratioP2;P2;SDS_P1;SDS_P2;PMS_P1;PMS_P2;Temp;Humidity;BMP_temperature;BMP_pressure;BME280_temperature;BME280_humidity;BME280_pressure;Samples;Min_cycle;Max_cycle;Signal;HPM_P1;HPM_P2
2022/02/14 00:01:19;;;;;;;13.73;3.38;;;;;;;;;;5128444;27;20215;-81
2022/02/14 00:03:46;;;;;;;5.45;3.90;;;;;;;;;;5129676;27;20184;-82
2022/02/14 00:06:14;;;;;;;8.70;4.18;;;;;;;;;;5129780;27;20198;-80
2022/02/14 00:08:44;;;;;;;7.25;4.00;;;;;;;;;;5127378;27;20180;-81
2022/02/14 00:11:12;;;;;;;8.57;3.90;;;;;;;;;;5124513;27;20207;-81
2022/02/14 00:13:39;;;;;;;5.75;3.80;;;;;;;;;;5122560;27;20206;-80
2022/02/14 00:16:06;;;;;;;6.35;3.67;;;;;;;;;;5124884;27;20695;-81
2022/02/14 00:18:33;;;;;;;5.35;4.05;;;;;;;;;;5127141;27;20196;-79
2022/02/14 00:21:00;;;;;;;6.60;3.72;;;;;;;;;;5129345;28;20226;-82
2022/02/14 00:23:29;;;;;;;8.48;3.17;;;;;;;;;;5130498;28;20200;-82
2022/02/14 00:25:56;;;;;;;6.72;3.78;;;;;;;;;;5127618;28;20192;-81
2022/02/14 00:28:23;;;;;;;6.90;4.20;;;;;;;;;;5121984;28;20564;-82
2022/02/14 00:30:50;;;;;;;5.95;3.83;;;;;;;;;;5127468;28;20216;-81
2022/02/14 00:33:17;;;;;;;5.45;3.50;;;;;;;;;;5125873;28;20196;-82
2022/02/14 00:35:45;;;;;;;6.80;3.35;;;;;;;;;;5118853;28;20199;-81
2022/02/14 00:38:12;;;;;;;6.18;3.88;;;;;;;;;;5121689;28;20187;-80
2022/02/14 00:40:41;;;;;;;5.00;3.85;;;;;;;;;;5110491;28;20256;-80
2022/02/14 00:43:08;;;;;;;7.03;3.90;;;;;;;;;;5128586;28;20188;-80
2022/02/14 00:45:35;;;;;;;8.70;3.60;;;;;;;;;;5128709;28;20191;-82
2022/02/14 00:48:03;;;;;;;10.18;4.05;;;;;;;;;;5131201;27;20931;-82
2022/02/14 00:50:30;;;;;;;7.40;4.00;;;;;;;;;;5132691;27;20268;-80
2022/02/14 00:52:57;;;;;;;5.18;3.05;;;;;;;;;;5115885;28;20618;-80
2022/02/14 00:55:27;;;;;;;6.47;3.05;;;;;;;;;;5128913;27;20188;-82
2022/02/14 00:57:56;;;;;;;5.70;4.25;;;;;;;;;;5125220;27;20310;-81
2022/02/14 01:00:23;;;;;;;9.45;5.68;;;;;;;;;;5122664;27;20224;-82
2022/02/14 01:02:50;;;;;;;9.90;3.80;;;;;;;;;;5095630;28;20189;-82
2022/02/14 01:05:18;;;;;;;4.50;3.70;;;;;;;;;;5092475;28;20193;-82
2022/02/14 01:07:45;;;;;;;8.60;3.65;;;;;;;;;;5109782;28;20284;-79
2022/02/14 01:10:13;;;;;;;7.70;3.70;;;;;;;;;;5112053;28;20205;-81
2022/02/14 01:12:41;;;;;;;4.15;3.30;;;;;;;;;;5107398;27;20193;-81
2022/02/14 01:15:10;;;;;;;6.25;3.22;;;;;;;;;;5117224;27;20210;-81
2022/02/14 01:17:38;;;;;;;5.32;3.55;;;;;;;;;;5121784;27;20720;-81
2022/02/14 01:20:07;;;;;;;8.55;3.80;;;;;;;;;;5109851;27;20865;-82
2022/02/14 01:22:34;;;;;;;4.43;3.33;;;;;;;;;;5105829;28;20199;-81
2022/02/14 01:25:02;;;;;;;10.07;4.00;;;;;;;;;;5106424;28;20197;-82
2022/02/14 01:27:29;;;;;;;9.20;3.65;;;;;;;;;;5109863;28;20592;-82
2022/02/14 01:29:56;;;;;;;6.18;3.88;;;;;;;;;;5111467;28;20225;-83
2022/02/14 01:32:24;;;;;;;4.90;2.80;;;;;;;;;;5114515;27;20304;-79
2022/02/14 01:34:52;;;;;;;6.40;3.70;;;;;;;;;;5116394;27;20196;-83
2022/02/14 01:37:19;;;;;;;4.70;3.13;;;;;;;;;;5111828;27;20488;-82
2022/02/14 01:39:47;;;;;;;6.30;3.00;;;;;;;;;;5111164;28;20462;-83
2022/02/14 01:42:18;;;;;;;7.15;4.05;;;;;;;;;;5110664;28;20730;-82
2022/02/14 01:44:46;;;;;;;5.27;3.47;;;;;;;;;;5109391;28;20184;-82
2022/02/14 01:47:14;;;;;;;5.93;2.90;;;;;;;;;;5110764;28;20446;-82
2022/02/14 01:49:44;;;;;;;9.77;3.90;;;;;;;;;;5092748;27;20223;-80
2022/02/14 01:52:11;;;;;;;6.93;3.50;;;;;;;;;;5095339;27;20192;-80
2022/02/14 01:54:39;;;;;;;4.63;2.90;;;;;;;;;;5087672;28;20192;-80
2022/02/14 01:57:06;;;;;;;4.77;3.40;;;;;;;;;;5108220;28;20236;-83
2022/02/14 01:59:34;;;;;;;5.83;3.27;;;;;;;;;;5109623;27;20446;-81
2022/02/14 02:02:01;;;;;;;6.78;3.25;;;;;;;;;;5131165;27;20505;-79
2022/02/14 02:04:29;;;;;;;6.00;3.33;;;;;;;;;;5129269;27;20570;-81
2022/02/14 02:06:58;;;;;;;9.37;3.67;;;;;;;;;;5108697;27;20192;-80
2022/02/14 02:09:26;;;;;;;5.00;3.10;;;;;;;;;;5109803;27;20779;-83
2022/02/14 02:14:34;;;;;;;3.83;2.80;;;;;;;;;;5128664;27;20195;-82
2022/02/14 02:17:01;;;;;;;7.20;3.33;;;;;;;;;;5128773;27;20234;-80
2022/02/14 02:19:31;;;;;;;6.07;3.50;;;;;;;;;;5131899;27;20272;-82
2022/02/14 02:21:59;;;;;;;6.85;3.35;;;;;;;;;;5131421;27;20192;-79
2022/02/14 02:24:26;;;;;;;4.30;3.00;;;;;;;;;;5128059;27;20195;-81
2022/02/14 02:26:58;;;;;;;5.00;2.70;;;;;;;;;;5123620;27;20438;-81
2022/02/14 02:29:26;;;;;;;5.28;3.33;;;;;;;;;;5112162;27;20812;-79
2022/02/14 02:31:53;;;;;;;6.88;2.53;;;;;;;;;;5130935;27;20652;-80
2022/02/14 02:34:20;;;;;;;4.45;2.90;;;;;;;;;;5131645;27;20188;-80
2022/02/14 02:36:48;;;;;;;4.65;3.03;;;;;;;;;;5130876;27;20228;-81
2022/02/14 02:39:16;;;;;;;6.50;3.20;;;;;;;;;;5107930;28;20203;-80
2022/02/14 02:41:43;;;;;;;5.35;2.90;;;;;;;;;;5114981;27;20445;-81
2022/02/14 02:44:12;;;;;;;7.00;3.40;;;;;;;;;;5115341;27;20196;-80
2022/02/14 02:46:40;;;;;;;6.13;2.60;;;;;;;;;;5125843;27;20200;-81
2022/02/14 02:49:11;;;;;;;6.80;3.23;;;;;;;;;;5127699;27;20780;-79
2022/02/14 02:51:38;;;;;;;5.53;3.10;;;;;;;;;;5112209;27;20458;-81
2022/02/14 02:54:06;;;;;;;3.83;2.77;;;;;;;;;;5109152;27;20485;-82
2022/02/14 02:56:33;;;;;;;5.77;2.73;;;;;;;;;;5131528;27;20438;-81
2022/02/14 02:59:00;;;;;;;4.83;2.87;;;;;;;;;;5128183;27;20465;-78
2022/02/14 03:01:29;;;;;;;4.30;2.70;;;;;;;;;;5112606;27;20469;-80
2022/02/14 03:03:56;;;;;;;5.63;3.13;;;;;;;;;;5126328;27;20547;-81
2022/02/14 03:06:24;;;;;;;7.20;3.30;;;;;;;;;;5099417;28;20457;-82
2022/02/14 03:08:51;;;;;;;5.57;3.40;;;;;;;;;;5105365;28;20434;-83
2022/02/14 03:11:18;;;;;;;6.10;3.00;;;;;;;;;;5101837;28;20464;-80
2022/02/14 03:13:45;;;;;;;8.20;3.17;;;;;;;;;;5110613;27;20458;-80
2022/02/14 03:16:12;;;;;;;4.40;3.10;;;;;;;;;;5109393;28;20438;-80
2022/02/14 03:18:41;;;;;;;3.77;2.60;;;;;;;;;;5110758;27;20228;-81
2022/02/14 03:21:08;;;;;;;5.63;3.13;;;;;;;;;;5116538;27;20962;-81
2022/02/14 03:23:35;;;;;;;5.60;3.00;;;;;;;;;;5093344;27;20480;-79
2022/02/14 03:26:03;;;;;;;5.47;3.37;;;;;;;;;;5105312;28;20442;-81
2022/02/14 03:28:30;;;;;;;4.67;2.93;;;;;;;;;;5101046;27;20462;-82
2022/02/14 03:30:57;;;;;;;3.90;2.50;;;;;;;;;;5106815;27;20901;-82
2022/02/14 03:33:25;;;;;;;4.07;2.63;;;;;;;;;;5091211;28;20525;-81
2022/02/14 03:35:53;;;;;;;8.60;2.53;;;;;;;;;;5108834;28;20447;-80
2022/02/14 03:38:20;;;;;;;6.43;3.00;;;;;;;;;;5091549;28;20482;-80
2022/02/14 03:40:48;;;;;;;6.83;2.90;;;;;;;;;;5108650;28;20465;-80
2022/02/14 03:43:15;;;;;;;7.83;3.60;;;;;;;;;;5107574;27;20459;-79
2022/02/14 03:45:43;;;;;;;8.10;2.57;;;;;;;;;;5110525;27;20450;-81
2022/02/14 03:48:10;;;;;;;4.07;2.90;;;;;;;;;;5116181;27;20446;-81
2022/02/14 03:50:37;;;;;;;5.17;2.63;;;;;;;;;;5109038;28;20461;-81
2022/02/14 03:53:06;;;;;;;5.33;2.50;;;;;;;;;;5108971;28;20445;-81
2022/02/14 03:55:33;;;;;;;5.10;2.87;;;;;;;;;;5116157;27;20450;-81
2022/02/14 03:58:00;;;;;;;5.60;2.53;;;;;;;;;;5098023;28;20986;-82
2022/02/14 04:00:28;;;;;;;3.73;2.50;;;;;;;;;;5118837;27;20472;-79
2022/02/14 04:02:55;;;;;;;3.17;2.50;;;;;;;;;;5119529;27;20469;-80
2022/02/14 04:05:22;;;;;;;4.13;3.07;;;;;;;;;;5120624;27;20815;-82
2022/02/14 04:07:49;;;;;;;4.00;2.53;;;;;;;;;;5128235;27;20445;-81
2022/02/14 04:10:18;;;;;;;4.90;2.73;;;;;;;;;;5129441;27;20457;-80
2022/02/14 04:12:45;;;;;;;5.40;2.37;;;;;;;;;;5116950;27;20438;-82
2022/02/14 04:15:12;;;;;;;2.90;2.10;;;;;;;;;;5110702;27;20453;-79
2022/02/14 04:17:39;;;;;;;4.50;2.50;;;;;;;;;;5126657;27;20729;-80
2022/02/14 04:20:07;;;;;;;3.93;2.50;;;;;;;;;;5115704;27;20826;-81
2022/02/14 04:22:35;;;;;;;6.97;3.17;;;;;;;;;;5120109;27;20937;-80
2022/02/14 04:25:02;;;;;;;5.73;3.10;;;;;;;;;;5126749;28;20461;-80
2022/02/14 04:27:30;;;;;;;4.87;2.40;;;;;;;;;;5126116;28;20445;-82
2022/02/14 04:29:58;;;;;;;5.30;2.50;;;;;;;;;;5128732;28;20469;-80
2022/02/14 04:32:25;;;;;;;2.53;2.30;;;;;;;;;;5130879;28;20808;-80
2022/02/14 04:34:52;;;;;;;10.70;2.63;;;;;;;;;;5122060;28;20457;-79
2022/02/14 04:37:19;;;;;;;3.50;2.57;;;;;;;;;;5120997;28;20974;-80
2022/02/14 04:39:46;;;;;;;3.50;2.80;;;;;;;;;;5114625;28;20474;-80
2022/02/14 04:42:14;;;;;;;3.13;2.80;;;;;;;;;;5128913;28;20449;-79
2022/02/14 04:44:42;;;;;;;3.87;2.50;;;;;;;;;;5128534;28;20935;-82
2022/02/14 04:47:09;;;;;;;7.47;2.83;;;;;;;;;;5127527;28;20465;-80
2022/02/14 04:49:36;;;;;;;3.83;2.70;;;;;;;;;;5110931;28;20461;-83
2022/02/14 04:52:04;;;;;;;2.70;2.07;;;;;;;;;;5129802;28;20473;-81
2022/02/14 04:54:31;;;;;;;6.90;2.77;;;;;;;;;;5131587;28;20477;-81
2022/02/14 04:56:58;;;;;;;4.43;2.70;;;;;;;;;;5130186;28;20450;-81
2022/02/14 04:59:25;;;;;;;5.50;2.73;;;;;;;;;;5121939;28;20433;-79
2022/02/14 05:01:54;;;;;;;3.03;2.73;;;;;;;;;;5116988;28;20453;-79
2022/02/14 05:04:22;;;;;;;3.00;2.10;;;;;;;;;;5128145;28;20438;-81
2022/02/14 05:06:50;;;;;;;4.73;2.43;;;;;;;;;;5128935;28;20496;-80
2022/02/14 05:09:17;;;;;;;3.23;2.37;;;;;;;;;;5127421;28;20433;-79
2022/02/14 05:11:44;;;;;;;2.87;2.50;;;;;;;;;;5127519;28;20453;-81
2022/02/14 05:14:11;;;;;;;7.83;2.50;;;;;;;;;;5129047;28;20449;-80
2022/02/14 05:16:38;;;;;;;2.40;1.93;;;;;;;;;;5131654;27;20438;-83
2022/02/14 05:19:07;;;;;;;3.70;2.33;;;;;;;;;;5127317;28;20492;-83
2022/02/14 05:21:34;;;;;;;2.57;2.00;;;;;;;;;;5114799;28;20465;-84
2022/02/14 05:24:01;;;;;;;2.80;2.10;;;;;;;;;;5116715;28;20922;-80
2022/02/14 05:26:28;;;;;;;2.67;2.20;;;;;;;;;;5124949;28;20446;-81
2022/02/14 05:28:55;;;;;;;3.10;2.10;;;;;;;;;;5104918;28;20458;-81
2022/02/14 05:31:23;;;;;;;5.67;2.67;;;;;;;;;;5117394;28;20493;-78
2022/02/14 05:33:50;;;;;;;3.10;2.13;;;;;;;;;;5121130;28;20811;-83
2022/02/14 05:36:19;;;;;;;5.00;2.60;;;;;;;;;;5124240;27;20455;-82
2022/02/14 05:38:47;;;;;;;2.60;2.40;;;;;;;;;;5127725;27;20578;-81
2022/02/14 05:41:14;;;;;;;3.10;2.47;;;;;;;;;;5122642;27;21157;-80
2022/02/14 05:43:41;;;;;;;5.90;3.20;;;;;;;;;;5128957;27;20540;-81
2022/02/14 05:46:13;;;;;;;3.47;2.43;;;;;;;;;;5131754;27;20433;-81
2022/02/14 05:48:41;;;;;;;2.43;2.20;;;;;;;;;;5130623;27;20596;-79
2022/02/14 05:51:08;;;;;;;3.70;2.10;;;;;;;;;;5113630;27;20438;-81
2022/02/14 05:53:38;;;;;;;5.20;2.10;;;;;;;;;;5131459;27;20442;-80
2022/02/14 05:56:09;;;;;;;3.23;2.20;;;;;;;;;;5130086;27;20430;-82
2022/02/14 05:58:36;;;;;;;4.73;2.63;;;;;;;;;;5123598;27;20477;-80
2022/02/14 06:01:04;;;;;;;3.57;2.37;;;;;;;;;;5125042;27;20833;-80
2022/02/14 06:03:31;;;;;;;2.17;1.97;;;;;;;;;;5131374;27;20445;-80
2022/02/14 06:05:58;;;;;;;4.00;2.73;;;;;;;;;;5131800;27;20449;-81
2022/02/14 06:08:25;;;;;;;2.77;1.87;;;;;;;;;;5132046;27;20433;-81
2022/02/14 06:10:53;;;;;;;3.80;2.30;;;;;;;;;;5131857;27;20541;-81
2022/02/14 06:13:21;;;;;;;2.87;2.20;;;;;;;;;;5127163;27;20454;-81
2022/02/14 06:15:48;;;;;;;4.93;2.40;;;;;;;;;;5122537;27;20461;-81
2022/02/14 06:18:15;;;;;;;2.90;2.03;;;;;;;;;;5126433;27;20516;-81
2022/02/14 06:20:42;;;;;;;4.87;2.10;;;;;;;;;;5131456;27;20902;-82
2022/02/14 06:23:09;;;;;;;2.80;2.20;;;;;;;;;;5131022;27;20597;-80
2022/02/14 06:25:37;;;;;;;5.23;2.20;;;;;;;;;;5130077;27;21164;-79
2022/02/14 06:28:05;;;;;;;4.27;2.23;;;;;;;;;;5113082;27;20437;-80
2022/02/14 06:30:32;;;;;;;4.43;2.37;;;;;;;;;;5123336;27;20481;-80
2022/02/14 06:33:00;;;;;;;5.93;2.70;;;;;;;;;;5121059;27;22041;-80
2022/02/14 06:35:27;;;;;;;3.53;2.17;;;;;;;;;;5129869;27;20437;-79
2022/02/14 06:37:54;;;;;;;8.60;2.30;;;;;;;;;;5130621;27;20582;-80
2022/02/14 06:40:21;;;;;;;3.50;1.93;;;;;;;;;;5130104;27;20966;-80
2022/02/14 06:42:50;;;;;;;4.77;2.40;;;;;;;;;;5131562;27;20923;-82
2022/02/14 06:45:18;;;;;;;2.80;2.23;;;;;;;;;;5131207;27;20510;-81
2022/02/14 06:47:46;;;;;;;2.53;1.90;;;;;;;;;;5129552;27;20947;-81
2022/02/14 06:50:13;;;;;;;2.20;1.90;;;;;;;;;;5133125;27;20496;-80
2022/02/14 06:52:41;;;;;;;2.73;2.00;;;;;;;;;;5127233;27;21010;-80
2022/02/14 06:55:08;;;;;;;2.43;1.90;;;;;;;;;;5120948;27;20472;-82
2022/02/14 06:57:36;;;;;;;2.73;2.07;;;;;;;;;;5128256;27;20934;-80
2022/02/14 07:00:05;;;;;;;4.63;2.23;;;;;;;;;;5130889;27;20457;-80
2022/02/14 07:02:33;;;;;;;2.90;2.30;;;;;;;;;;5113270;27;20438;-80
2022/02/14 07:05:00;;;;;;;2.53;2.07;;;;;;;;;;5130192;27;20445;-79
2022/02/14 07:07:27;;;;;;;3.30;2.03;;;;;;;;;;5130619;27;20429;-77
2022/02/14 07:09:55;;;;;;;2.33;2.10;;;;;;;;;;5131203;27;20989;-80
2022/02/14 07:12:22;;;;;;;3.07;2.30;;;;;;;;;;5131440;27;20437;-81
2022/02/14 07:14:49;;;;;;;4.07;3.07;;;;;;;;;;5127642;27;20920;-81
2022/02/14 07:17:16;;;;;;;3.83;2.23;;;;;;;;;;5121041;27;20462;-76
2022/02/14 07:19:44;;;;;;;6.13;2.57;;;;;;;;;;5126492;27;20477;-79
2022/02/14 07:22:12;;;;;;;2.50;2.30;;;;;;;;;;5130808;27;20434;-81
2022/02/14 07:24:39;;;;;;;1.97;1.87;;;;;;;;;;5127957;27;20449;-80
2022/02/14 07:27:06;;;;;;;2.70;1.90;;;;;;;;;;5129104;27;20453;-78
2022/02/14 07:29:33;;;;;;;3.20;2.23;;;;;;;;;;5130920;27;20444;-83
2022/02/14 07:32:00;;;;;;;3.80;2.30;;;;;;;;;;5122030;27;20480;-79
2022/02/14 07:34:27;;;;;;;4.63;2.13;;;;;;;;;;5116692;27;20458;-78
2022/02/14 07:36:58;;;;;;;2.30;2.10;;;;;;;;;;5123089;27;20808;-77
2022/02/14 07:39:25;;;;;;;2.97;2.30;;;;;;;;;;5131578;27;20489;-82
2022/02/14 07:41:52;;;;;;;3.07;2.00;;;;;;;;;;5128774;27;20430;-81
2022/02/14 07:44:19;;;;;;;3.43;2.07;;;;;;;;;;5129142;27;20437;-81
2022/02/14 07:46:50;;;;;;;5.07;2.30;;;;;;;;;;5130793;27;20429;-80
2022/02/14 07:49:18;;;;;;;3.87;2.60;;;;;;;;;;5119803;27;20815;-80
2022/02/14 07:51:45;;;;;;;7.60;2.50;;;;;;;;;;5123551;27;20441;-81
2022/02/14 07:54:14;;;;;;;3.50;1.93;;;;;;;;;;5128058;27;20437;-81
2022/02/14 07:56:41;;;;;;;7.10;2.20;;;;;;;;;;5125649;27;20898;-81
2022/02/14 07:59:08;;;;;;;3.47;1.93;;;;;;;;;;5117504;27;20478;-80
2022/02/14 08:01:36;;;;;;;4.50;2.20;;;;;;;;;;5120287;27;20837;-81
2022/02/14 08:04:05;;;;;;;6.87;3.50;;;;;;;;;;5126269;27;20449;-80
2022/02/14 08:06:32;;;;;;;2.27;2.07;;;;;;;;;;5122900;27;20450;-81
2022/02/14 08:08:59;;;;;;;3.90;1.70;;;;;;;;;;5121731;27;20519;-79
2022/02/14 08:11:28;;;;;;;2.27;1.90;;;;;;;;;;5124023;27;20461;-81
2022/02/14 08:13:55;;;;;;;6.53;2.00;;;;;;;;;;5128947;27;20779;-81
2022/02/14 08:16:22;;;;;;;3.10;2.13;;;;;;;;;;5128158;27;20453;-81
2022/02/14 08:18:49;;;;;;;3.53;1.90;;;;;;;;;;5127398;27;20492;-80
2022/02/14 08:21:16;;;;;;;2.90;2.07;;;;;;;;;;5129146;27;20819;-80
2022/02/14 08:23:43;;;;;;;4.70;2.13;;;;;;;;;;5120721;28;20450;-80
2022/02/14 08:26:11;;;;;;;2.43;1.70;;;;;;;;;;5118420;28;20469;-78
2022/02/14 08:28:39;;;;;;;3.80;3.13;;;;;;;;;;5123498;28;21016;-77
2022/02/14 08:31:07;;;;;;;3.00;2.00;;;;;;;;;;5123442;28;20942;-78
2022/02/14 08:33:34;;;;;;;5.37;2.17;;;;;;;;;;5117657;28;20481;-79
2022/02/14 08:36:01;;;;;;;6.00;2.00;;;;;;;;;;5118567;28;20435;-79
2022/02/14 08:38:28;;;;;;;4.53;2.37;;;;;;;;;;5116714;28;20453;-76
2022/02/14 08:40:55;;;;;;;4.57;2.30;;;;;;;;;;5121570;27;20445;-78
2022/02/14 08:43:22;;;;;;;3.50;2.10;;;;;;;;;;5119755;28;20457;-77
2022/02/14 08:45:51;;;;;;;2.33;1.80;;;;;;;;;;5111935;28;20463;-78
2022/02/14 08:48:18;;;;;;;3.53;1.90;;;;;;;;;;5117635;28;20448;-79
2022/02/14 08:50:45;;;;;;;3.33;1.87;;;;;;;;;;5120400;28;20450;-80
2022/02/14 08:53:13;;;;;;;2.57;1.90;;;;;;;;;;5095151;28;20444;-84
2022/02/14 08:55:40;;;;;;;3.60;1.83;;;;;;;;;;5125823;28;20453;-80
2022/02/14 08:58:07;;;;;;;2.83;2.50;;;;;;;;;;5129508;28;20441;-81
2022/02/14 09:00:34;;;;;;;3.57;1.90;;;;;;;;;;5122082;28;20485;-81
2022/02/14 09:03:02;;;;;;;3.97;2.10;;;;;;;;;;5118467;28;20799;-81
2022/02/14 09:05:30;;;;;;;2.80;2.00;;;;;;;;;;5120678;28;20441;-81
2022/02/14 09:07:57;;;;;;;10.50;3.13;;;;;;;;;;5127035;28;20462;-78
2022/02/14 09:10:24;;;;;;;2.80;1.60;;;;;;;;;;5132939;27;20848;-82
2022/02/14 09:12:51;;;;;;;3.03;1.73;;;;;;;;;;5127467;27;20853;-78
2022/02/14 09:17:44;;;;;;;2.23;1.60;;;;;;;;;;5129000;27;20449;-77
2022/02/14 09:20:13;;;;;;;2.03;1.40;;;;;;;;;;5125645;27;20691;-77
2022/02/14 09:22:40;;;;;;;3.87;2.20;;;;;;;;;;5106346;27;20453;-78
2022/02/14 09:25:09;;;;;;;3.37;2.40;;;;;;;;;;5123547;27;20433;-78
2022/02/14 09:27:36;;;;;;;2.87;1.70;;;;;;;;;;5119734;27;21566;-80
2022/02/14 09:30:03;;;;;;;1.53;1.30;;;;;;;;;;5131524;27;20446;-77
2022/02/14 09:32:31;;;;;;;3.60;1.70;;;;;;;;;;5126767;27;20549;-78
2022/02/14 09:34:58;;;;;;;2.13;1.93;;;;;;;;;;5130099;27;20461;-78
2022/02/14 09:37:26;;;;;;;2.60;1.83;;;;;;;;;;5133743;27;20780;-79
2022/02/14 09:39:53;;;;;;;2.53;1.50;;;;;;;;;;5128573;27;20477;-78
2022/02/14 09:42:20;;;;;;;1.60;1.30;;;;;;;;;;5124339;27;20435;-81
2022/02/14 09:44:48;;;;;;;1.50;1.37;;;;;;;;;;5122803;27;20439;-81
2022/02/14 09:47:15;;;;;;;1.60;1.50;;;;;;;;;;5130347;27;20550;-79
2022/02/14 09:49:43;;;;;;;2.33;1.67;;;;;;;;;;5113914;27;20484;-81
2022/02/14 09:52:10;;;;;;;1.90;1.30;;;;;;;;;;5132234;27;20447;-80
2022/02/14 09:54:39;;;;;;;1.50;1.20;;;;;;;;;;5132677;27;20434;-81
2022/02/14 09:57:07;;;;;;;2.10;1.23;;;;;;;;;;5132283;27;20807;-80
2022/02/14 09:59:34;;;;;;;1.70;1.40;;;;;;;;;;5132252;27;20476;-81
2022/02/14 10:02:18;;;;;;;1.43;1.33;;;;;;;;;;5113920;27;20465;-79
2022/02/14 10:05:00;;;;;;;1.60;1.40;;;;;;;;;;5107063;27;20861;-79
2022/02/14 10:07:38;;;;;;;1.40;1.30;;;;;;;;;;5126367;27;20490;-80
2022/02/14 10:10:10;;;;;;;2.10;1.30;;;;;;;;;;5107905;27;20461;-81
2022/02/14 10:12:42;;;;;;;1.73;0.90;;;;;;;;;;5130096;27;20446;-80
2022/02/14 10:15:10;;;;;;;1.20;1.10;;;;;;;;;;5131815;27;20436;-79
2022/02/14 10:17:41;;;;;;;1.50;1.40;;;;;;;;;;5129947;27;20465;-79
2022/02/14 10:20:08;;;;;;;4.90;1.50;;;;;;;;;;5109410;27;20489;-79
2022/02/14 10:22:51;;;;;;;2.73;1.40;;;;;;;;;;5133613;27;20478;-80
2022/02/14 10:25:27;;;;;;;4.53;1.40;;;;;;;;;;5128383;27;20515;-78
2022/02/14 10:27:54;;;;;;;2.53;1.20;;;;;;;;;;5124174;27;20424;-81
2022/02/14 10:30:21;;;;;;;2.23;1.60;;;;;;;;;;5124987;27;20454;-82
2022/02/14 10:32:50;;;;;;;1.83;1.30;;;;;;;;;;5116877;27;20533;-81
2022/02/14 10:35:18;;;;;;;1.77;1.23;;;;;;;;;;5093043;28;20435;-80
2022/02/14 10:37:46;;;;;;;1.63;1.23;;;;;;;;;;5123300;27;20436;-80
2022/02/14 10:40:27;;;;;;;1.40;1.20;;;;;;;;;;5131944;27;20494;-80
2022/02/14 10:42:55;;;;;;;1.40;1.10;;;;;;;;;;5132693;27;20451;-79
2022/02/14 10:45:22;;;;;;;1.53;1.17;;;;;;;;;;5127140;27;20458;-80
2022/02/14 10:47:50;;;;;;;1.90;1.37;;;;;;;;;;5124501;27;20433;-81
2022/02/14 10:50:18;;;;;;;1.90;1.20;;;;;;;;;;5125475;27;20970;-79
2022/02/14 10:52:47;;;;;;;1.20;0.93;;;;;;;;;;5134284;27;20472;-82
2022/02/14 10:55:15;;;;;;;1.30;1.10;;;;;;;;;;5131364;27;20441;-80
2022/02/14 10:57:45;;;;;;;1.40;1.20;;;;;;;;;;5131645;27;20434;-81
2022/02/14 11:00:13;;;;;;;1.40;0.90;;;;;;;;;;5129066;27;20486;-80
2022/02/14 11:02:43;;;;;;;2.13;1.20;;;;;;;;;;5129500;27;21182;-80
2022/02/14 11:05:11;;;;;;;1.10;1.00;;;;;;;;;;5103436;27;20438;-78
2022/02/14 11:07:39;;;;;;;1.73;1.20;;;;;;;;;;5093068;28;20448;-78
2022/02/14 11:10:06;;;;;;;1.67;1.07;;;;;;;;;;5103634;27;20453;-78
2022/02/14 11:12:35;;;;;;;2.90;1.30;;;;;;;;;;5128773;27;20462;-81
2022/02/14 11:15:04;;;;;;;1.77;1.20;;;;;;;;;;5130051;27;20443;-81
2022/02/14 11:17:32;;;;;;;2.07;1.50;;;;;;;;;;5129561;27;20925;-77
2022/02/14 11:20:00;;;;;;;5.17;1.50;;;;;;;;;;5126787;27;20489;-79
2022/02/14 11:22:29;;;;;;;2.10;1.37;;;;;;;;;;5110709;27;20453;-78
2022/02/14 11:24:59;;;;;;;3.87;1.63;;;;;;;;;;5122512;27;20439;-78
2022/02/14 11:27:29;;;;;;;2.10;1.13;;;;;;;;;;5128230;27;20483;-77
2022/02/14 11:30:00;;;;;;;2.27;1.20;;;;;;;;;;5126485;27;20480;-77
2022/02/14 11:32:29;;;;;;;3.43;1.47;;;;;;;;;;5128692;27;20540;-80
2022/02/14 11:34:58;;;;;;;1.70;1.40;;;;;;;;;;5131318;27;20463;-81
2022/02/14 11:37:25;;;;;;;2.40;1.50;;;;;;;;;;5130326;27;20802;-81
2022/02/14 11:39:52;;;;;;;3.40;1.50;;;;;;;;;;5109298;27;20479;-82
2022/02/14 11:42:20;;;;;;;2.30;1.10;;;;;;;;;;5131654;27;20441;-81
2022/02/14 11:44:47;;;;;;;2.30;1.40;;;;;;;;;;5126702;27;20444;-82
2022/02/14 11:47:16;;;;;;;1.30;1.07;;;;;;;;;;5120093;27;20450;-82
2022/02/14 11:49:46;;;;;;;1.10;0.83;;;;;;;;;;5128743;27;20625;-81
2022/02/14 11:52:28;;;;;;;1.03;0.93;;;;;;;;;;5112152;27;20535;-82
2022/02/14 11:54:55;;;;;;;1.20;1.10;;;;;;;;;;5129351;27;20445;-82
2022/02/14 11:57:26;;;;;;;5.27;1.70;;;;;;;;;;5109617;27;20442;-83
2022/02/14 11:59:54;;;;;;;2.57;1.40;;;;;;;;;;5127240;27;20494;-83
2022/02/14 12:02:28;;;;;;;4.30;1.50;;;;;;;;;;5131047;27;20462;-81
2022/02/14 12:04:57;;;;;;;2.80;1.87;;;;;;;;;;5130756;27;20464;-80
2022/02/14 12:07:25;;;;;;;2.00;1.77;;;;;;;;;;5106189;27;20950;-82
2022/02/14 12:10:07;;;;;;;3.20;2.40;;;;;;;;;;5104988;28;20537;-82
2022/02/14 12:12:51;;;;;;;5.30;2.20;;;;;;;;;;5123009;27;21116;-85
2022/02/14 12:21:02;;;;;;;4.70;2.20;;;;;;;;;;5126380;27;21022;-83
2022/02/14 12:23:29;;;;;;;4.37;2.00;;;;;;;;;;5113163;28;20455;-80
2022/02/14 12:25:57;;;;;;;3.03;1.80;;;;;;;;;;5108718;28;20453;-81
2022/02/14 12:28:24;;;;;;;1.80;1.40;;;;;;;;;;5116461;28;20475;-81
2022/02/14 12:30:52;;;;;;;2.73;1.70;;;;;;;;;;5100027;28;20490;-82
2022/02/14 12:33:20;;;;;;;5.53;2.33;;;;;;;;;;5116861;28;20870;-85
2022/02/14 12:35:48;;;;;;;1.70;1.60;;;;;;;;;;5124803;28;20627;-79
2022/02/14 12:38:16;;;;;;;2.40;1.70;;;;;;;;;;5125677;28;20803;-83
2022/02/14 12:40:45;;;;;;;1.90;1.20;;;;;;;;;;5107011;28;20488;-82
2022/02/14 12:43:12;;;;;;;2.77;1.33;;;;;;;;;;5124035;27;20824;-83
2022/02/14 12:45:39;;;;;;;2.50;1.30;;;;;;;;;;5125350;27;20452;-83
2022/02/14 12:48:07;;;;;;;3.30;1.40;;;;;;;;;;5124248;27;20433;-82
2022/02/14 12:50:36;;;;;;;2.20;1.40;;;;;;;;;;5128748;27;20459;-85
2022/02/14 12:53:09;;;;;;;3.90;1.63;;;;;;;;;;5130539;27;20440;-83
2022/02/14 12:55:38;;;;;;;1.93;1.70;;;;;;;;;;5131112;27;20451;-81
2022/02/14 12:58:05;;;;;;;1.77;1.20;;;;;;;;;;5129208;27;20433;-82
2022/02/14 13:00:36;;;;;;;4.00;2.17;;;;;;;;;;5122820;27;20503;-77
2022/02/14 13:03:04;;;;;;;1.50;1.20;;;;;;;;;;5132682;27;20443;-79
2022/02/14 13:05:33;;;;;;;2.67;1.20;;;;;;;;;;5117271;27;20844;-78
2022/02/14 13:08:01;;;;;;;2.60;1.90;;;;;;;;;;5120611;27;20435;-79
2022/02/14 13:10:29;;;;;;;2.23;1.70;;;;;;;;;;5130256;27;20475;-85
2022/02/14 13:12:59;;;;;;;3.30;1.63;;;;;;;;;;5131649;27;20451;-81
2022/02/14 13:15:26;;;;;;;3.70;1.67;;;;;;;;;;5133030;27;20447;-81
2022/02/14 13:17:53;;;;;;;7.83;2.07;;;;;;;;;;5129098;27;20453;-80
2022/02/14 13:20:22;;;;;;;3.43;1.80;;;;;;;;;;5129594;27;20484;-82
2022/02/14 13:22:49;;;;;;;2.60;1.50;;;;;;;;;;5120103;27;20492;-84
2022/02/14 13:25:18;;;;;;;2.50;1.50;;;;;;;;;;5120898;27;20575;-85
2022/02/14 13:27:46;;;;;;;1.00;0.90;;;;;;;;;;5111934;27;20455;-80
2022/02/14 13:30:16;;;;;;;2.00;1.40;;;;;;;;;;5112152;27;20991;-87
2022/02/14 13:32:45;;;;;;;6.37;2.43;;;;;;;;;;5132155;27;20442;-83
2022/02/14 13:35:13;;;;;;;7.73;1.80;;;;;;;;;;5132216;27;20537;-82
2022/02/14 13:37:42;;;;;;;2.50;1.87;;;;;;;;;;5107113;27;20823;-80
2022/02/14 13:40:24;;;;;;;4.67;1.60;;;;;;;;;;5119437;27;20521;-81
2022/02/14 13:42:52;;;;;;;3.20;2.00;;;;;;;;;;5111096;27;20457;-78
2022/02/14 13:45:20;;;;;;;4.97;2.43;;;;;;;;;;5133032;27;20438;-82
2022/02/14 13:47:48;;;;;;;5.97;2.80;;;;;;;;;;5132930;27;20442;-81
2022/02/14 13:50:23;;;;;;;9.60;4.20;;;;;;;;;;5133267;27;21540;-80
2022/02/14 13:52:50;;;;;;;6.20;3.47;;;;;;;;;;5131032;27;20895;-81
2022/02/14 13:55:18;;;;;;;4.90;2.57;;;;;;;;;;5131817;27;20481;-81
2022/02/14 13:57:47;;;;;;;5.70;2.33;;;;;;;;;;5134588;27;20443;-82
2022/02/14 14:00:29;;;;;;;4.50;2.50;;;;;;;;;;5110969;27;20478;-81
2022/02/14 14:03:01;;;;;;;4.03;2.03;;;;;;;;;;5109552;27;20438;-81
2022/02/14 14:05:35;;;;;;;2.53;1.37;;;;;;;;;;5121294;27;20461;-78
2022/02/14 14:08:02;;;;;;;2.07;1.50;;;;;;;;;;5132767;27;20461;-80
2022/02/14 14:10:37;;;;;;;3.63;1.47;;;;;;;;;;5133740;27;20459;-80
2022/02/14 14:13:04;;;;;;;1.83;1.00;;;;;;;;;;5124963;27;20966;-81
2022/02/14 14:15:31;;;;;;;2.20;1.77;;;;;;;;;;5111886;27;20430;-79
2022/02/14 14:17:58;;;;;;;1.80;1.60;;;;;;;;;;5127620;27;20455;-78
2022/02/14 14:20:27;;;;;;;2.77;1.47;;;;;;;;;;5122719;27;20480;-78
2022/02/14 14:22:54;;;;;;;6.23;2.03;;;;;;;;;;5119803;27;20810;-78
2022/02/14 14:25:23;;;;;;;3.37;1.50;;;;;;;;;;5114241;27;20958;-79
2022/02/14 14:27:51;;;;;;;5.93;1.40;;;;;;;;;;5109336;27;20832;-82
2022/02/14 14:30:19;;;;;;;4.90;1.80;;;;;;;;;;5125783;27;21219;-80
2022/02/14 14:32:46;;;;;;;1.93;1.17;;;;;;;;;;5131391;27;20437;-79
2022/02/14 14:35:15;;;;;;;2.60;1.40;;;;;;;;;;5130226;27;20445;-79
2022/02/14 14:37:45;;;;;;;2.13;1.23;;;;;;;;;;5133167;27;20429;-80
2022/02/14 14:40:13;;;;;;;1.63;1.20;;;;;;;;;;5100314;28;20476;-80
2022/02/14 14:42:40;;;;;;;3.17;1.40;;;;;;;;;;5126674;27;20454;-79
2022/02/14 14:45:08;;;;;;;2.57;1.30;;;;;;;;;;5127275;27;20446;-80
2022/02/14 14:47:37;;;;;;;1.53;1.20;;;;;;;;;;5120407;27;20445;-79
2022/02/14 14:50:04;;;;;;;2.67;1.50;;;;;;;;;;5128642;27;20473;-80
2022/02/14 14:52:31;;;;;;;2.03;1.20;;;;;;;;;;5127306;27;20438;-79
2022/02/14 14:55:00;;;;;;;2.07;1.37;;;;;;;;;;5131602;27;20847;-79
2022/02/14 14:57:27;;;;;;;7.27;1.67;;;;;;;;;;5130991;27;20434;-79
2022/02/14 14:59:55;;;;;;;2.20;1.70;;;;;;;;;;5116234;27;20470;-78